CheckWX is a tool to help pilots better visualize weather data.  It is not intended as a substitute for an official pre-flight weather briefing.

16:56:00 UTC

URKA TAF
Anapa Airport
Anapa, Russian Federation
TAF URKA 181355Z 1815/1915 02008G15MPS CAVOK BECMG 1818/1820 05005G12MPS TEMPO 1909/1915 02008G16MPS

Jun-18@
15:00 UTC

Jun-18 @ 15:00 UTC

Jun-18@
18:00 UTC

Jun-18 @ 18:00 UTC

TAF URKA 181355Z 1815/1915 02008G15MPS CAVOK
Wind
  • 020° at 16 KTS
  • {Gusting to 29 KTS
Conditions
No significant weather
Cloud Levels
  • No significant clouds

Jun-18@
18:00 UTC

Jun-18 @ 18:00 UTC

Jun-19@
15:00 UTC

Jun-19 @ 15:00 UTC

BECMG 1818/1820 05005G12MPS

Becoming

Becoming Conditions expected by Tue, Jun 18, 2019 @ 20:00 UTC

Wind
  • 050° at 10 KTS
  • {Gusting to 23 KTS
Conditions
No significant weather
Cloud Levels
  • No significant clouds

Jun-19@
09:00 UTC

Jun-19 @ 09:00 UTC

Jun-19@
15:00 UTC

Jun-19 @ 15:00 UTC

TEMPO 1909/1915 02008G16MPS

Temporary

Temporary Changes expected for less than half the time period

Wind
  • 020° at 16 KTS
  • {Gusting to 31 KTS